Moyer Aviation Incorporated

Pocono Mountains Airport

188 Airport Rd. Tobyhanna, PA 18466 

P: 570-839-7161
800-321-5890
F: 570-839-7162

Weather

Weather

Pocono Weather

KMPO 222153Z AUTO 22010G19KT 10SM CLR 26/21 A2987 RMK AO2 SLP102 T02560206

Allentown Weather

KABE 222151Z 21014KT 10SM SCT050 32/21 A2979 RMK AO2 SLP085 T03170211

Wilkes-Barre Weather

KAVP 222154Z 21006KT 9SM FEW050 BKN060 BKN085 29/20 A2979 RMK AO2 SLP077 T02940200


* required field

Contact Us